createdAt,value
2022-11-10T00:01:18.681Z,99323.84
2022-11-10T00:03:45.501Z,99334.94
2022-11-10T00:06:12.347Z,99341.97
2022-11-10T00:08:39.126Z,99333.66
2022-11-10T00:11:07.634Z,99342.44
2022-11-10T00:13:56.366Z,99349.75
2022-11-10T00:16:41.671Z,99346.84
2022-11-10T00:19:08.531Z,99347.59
2022-11-10T00:21:36.607Z,99345.72
2022-11-10T00:24:04.123Z,99343.13
2022-11-10T00:26:30.966Z,99348.28
2022-11-10T00:28:57.731Z,99340.88
2022-11-10T00:31:24.512Z,99344.75
2022-11-10T00:33:51.353Z,99334.00
2022-11-10T00:36:18.126Z,99353.53
2022-11-10T00:38:45.010Z,99354.47
2022-11-10T00:41:11.862Z,99357.84
2022-11-10T00:43:38.652Z,99354.63
2022-11-10T00:46:05.624Z,99354.81
2022-11-10T00:48:32.399Z,99363.03
2022-11-10T00:50:59.510Z,99365.81
2022-11-10T00:53:26.292Z,99374.34
2022-11-10T00:55:53.143Z,99377.88
2022-11-10T00:58:19.966Z,99373.59
2022-11-10T01:00:46.882Z,99382.13
2022-11-10T01:03:16.061Z,99379.97
2022-11-10T01:05:44.157Z,99385.06
2022-11-10T01:08:11.532Z,99377.91
2022-11-10T01:10:38.390Z,99398.31
2022-11-10T01:13:05.207Z,99389.06
2022-11-10T01:15:31.994Z,99386.47
2022-11-10T01:17:58.814Z,99401.59
2022-11-10T01:20:25.986Z,99406.81
2022-11-10T01:22:52.770Z,99407.63
2022-11-10T01:25:19.722Z,99394.09
2022-11-10T01:27:46.603Z,99399.38
2022-11-10T01:30:13.545Z,99414.66
2022-11-10T01:32:40.851Z,99412.91
2022-11-10T01:35:08.225Z,99419.88
2022-11-10T01:37:35.046Z,99420.03
2022-11-10T01:40:01.952Z,99398.19
2022-11-10T01:43:01.221Z,99418.34
2022-11-10T01:45:44.709Z,99428.59
2022-11-10T01:48:22.180Z,99432.06
2022-11-10T01:50:49.507Z,99435.63
2022-11-10T01:53:24.378Z,99415.22
2022-11-10T01:55:52.615Z,99437.38
2022-11-10T01:58:26.627Z,99435.63
2022-11-10T02:00:54.116Z,99443.50
2022-11-10T02:03:53.056Z,99447.94
2022-11-10T02:06:25.224Z,99450.53
2022-11-10T02:08:53.872Z,99454.94
2022-11-10T02:11:21.446Z,99449.94
2022-11-10T02:13:48.868Z,99449.78
2022-11-10T02:16:15.894Z,99444.66
2022-11-10T02:18:42.650Z,99451.75
2022-11-10T02:21:09.981Z,99454.28
2022-11-10T02:23:36.883Z,99458.66
2022-11-10T02:26:06.461Z,99463.78
2022-11-10T02:28:38.058Z,99452.09
2022-11-10T02:31:05.977Z,99468.13
2022-11-10T02:33:32.799Z,99472.66
2022-11-10T02:35:59.588Z,99477.03
2022-11-10T02:38:26.502Z,99486.66
2022-11-10T02:40:53.293Z,99489.38
2022-11-10T02:43:20.494Z,99492.22
2022-11-10T02:45:47.668Z,99483.88
2022-11-10T02:48:16.025Z,99490.00
2022-11-10T02:50:43.138Z,99503.75
2022-11-10T02:53:10.318Z,99505.59
2022-11-10T02:55:37.107Z,99511.69
2022-11-10T02:58:04.067Z,99506.50
2022-11-10T03:00:31.044Z,99509.25
2022-11-10T03:03:01.220Z,99512.75
2022-11-10T03:05:29.661Z,99526.66
2022-11-10T03:08:00.304Z,99527.53
2022-11-10T03:10:28.830Z,99527.91
2022-11-10T03:13:01.608Z,99517.66
2022-11-10T03:15:29.391Z,99511.94
2022-11-10T03:17:56.708Z,99528.91
2022-11-10T03:20:23.693Z,99519.81
2022-11-10T03:22:50.475Z,99538.38
2022-11-10T03:25:17.246Z,99540.69
2022-11-10T03:27:44.105Z,99551.94
2022-11-10T03:30:11.259Z,99550.19
2022-11-10T03:32:38.035Z,99546.28
2022-11-10T03:35:05.011Z,99564.31
2022-11-10T03:37:31.898Z,99564.56
2022-11-10T03:39:58.667Z,99571.31
2022-11-10T03:42:25.475Z,99564.78
2022-11-10T03:44:52.350Z,99572.50
2022-11-10T03:47:19.215Z,99573.44
2022-11-10T03:49:46.063Z,99570.97
2022-11-10T03:52:12.849Z,99578.88
2022-11-10T03:54:39.636Z,99583.97
2022-11-10T03:57:06.445Z,99577.44
2022-11-10T03:59:33.219Z,99594.75
2022-11-10T04:02:00.322Z,99592.22
2022-11-10T04:04:45.569Z,99603.50
2022-11-10T04:07:32.453Z,99605.28
2022-11-10T04:09:59.214Z,99604.44
2022-11-10T04:12:44.440Z,99604.91
2022-11-10T04:15:31.502Z,99604.91
2022-11-10T04:18:17.014Z,99589.94
2022-11-10T04:20:44.271Z,99606.78
2022-11-10T04:23:30.387Z,99605.13
2022-11-10T04:26:23.785Z,99619.13
2022-11-10T04:28:54.399Z,99624.78
2022-11-10T04:31:22.843Z,99635.81
2022-11-10T04:33:50.850Z,99631.84
2022-11-10T04:36:23.869Z,99629.38
2022-11-10T04:38:51.232Z,99649.94
2022-11-10T04:41:18.709Z,99639.06
2022-11-10T04:43:45.490Z,99649.19
2022-11-10T04:46:30.643Z,99651.91
2022-11-10T04:48:58.264Z,99655.69
2022-11-10T04:51:29.665Z,99656.63
2022-11-10T04:53:56.865Z,99657.44
2022-11-10T04:56:25.298Z,99667.81
2022-11-10T04:58:54.854Z,99674.16
2022-11-10T05:01:26.145Z,99675.09
2022-11-10T05:03:53.781Z,99673.44
2022-11-10T05:06:20.923Z,99672.00
2022-11-10T05:08:47.879Z,99683.94
2022-11-10T05:11:15.251Z,99692.50
2022-11-10T05:13:43.288Z,99693.53
2022-11-10T05:16:10.932Z,99697.16
2022-11-10T05:18:38.018Z,99691.44
2022-11-10T05:21:04.895Z,99696.84
2022-11-10T05:23:41.683Z,99697.75
2022-11-10T05:26:17.080Z,99704.75
2022-11-10T05:28:45.903Z,99682.63
2022-11-10T05:31:13.398Z,99700.84
2022-11-10T05:33:40.188Z,99711.22
2022-11-10T05:36:08.023Z,99720.56
2022-11-10T05:38:38.855Z,99711.25
2022-11-10T05:41:07.236Z,99715.94
2022-11-10T05:43:34.034Z,99724.44
2022-11-10T05:46:00.901Z,99716.28
2022-11-10T05:48:27.705Z,99705.13
2022-11-10T05:50:54.489Z,99723.28
2022-11-10T05:53:21.566Z,99736.28
2022-11-10T05:55:48.578Z,99727.91
2022-11-10T05:58:15.662Z,99731.38
2022-11-10T06:00:42.468Z,99730.78
2022-11-10T06:03:20.083Z,99730.91
2022-11-10T06:05:47.451Z,99740.19
2022-11-10T06:08:14.786Z,99747.19
2022-11-10T06:10:41.609Z,99736.28
2022-11-10T06:13:08.494Z,99752.69
2022-11-10T06:15:35.380Z,99766.50
2022-11-10T06:18:02.505Z,99780.31
2022-11-10T06:20:29.540Z,99768.47
2022-11-10T06:23:06.237Z,99783.66
2022-11-10T06:25:35.999Z,99795.94
2022-11-10T06:28:04.301Z,99802.09
2022-11-10T06:30:33.480Z,99816.78
2022-11-10T06:33:00.494Z,99812.66
2022-11-10T06:35:28.065Z,99819.50
2022-11-10T06:38:03.678Z,99823.06
2022-11-10T06:40:32.068Z,99825.66
2022-11-10T06:42:59.555Z,99824.09
2022-11-10T06:45:28.380Z,99826.88
2022-11-10T06:48:08.061Z,99843.84
2022-11-10T06:50:35.200Z,99850.75
2022-11-10T06:53:02.753Z,99853.22
2022-11-10T06:55:30.452Z,99858.47
2022-11-10T06:57:57.616Z,99859.63
2022-11-10T07:00:26.521Z,99877.06
2022-11-10T07:03:05.052Z,99874.69
2022-11-10T07:05:34.878Z,99892.59
2022-11-10T07:08:16.251Z,99881.09
2022-11-10T07:10:45.446Z,99905.09
2022-11-10T07:13:12.575Z,99901.81
2022-11-10T07:15:39.370Z,99902.59
2022-11-10T07:18:06.176Z,99896.41
2022-11-10T07:20:33.026Z,99910.91
2022-11-10T07:23:05.548Z,99930.50
2022-11-10T07:25:37.373Z,99910.16
2022-11-10T07:28:07.856Z,99918.41
2022-11-10T07:30:36.134Z,99944.25
2022-11-10T07:33:10.346Z,99937.25
2022-11-10T07:35:37.847Z,99940.56
2022-11-10T07:38:07.875Z,99924.66
2022-11-10T07:40:35.138Z,99940.56
2022-11-10T07:43:02.418Z,99945.81
2022-11-10T07:45:29.882Z,99948.34
2022-11-10T07:48:05.787Z,99949.16
2022-11-10T07:50:35.749Z,99935.50
2022-11-10T07:53:08.514Z,99949.91
2022-11-10T07:55:37.509Z,99961.69
2022-11-10T07:58:05.335Z,99966.09
2022-11-10T08:00:33.183Z,99973.03
2022-11-10T08:03:08.358Z,99974.72
2022-11-10T08:05:35.751Z,99978.22
2022-11-10T08:08:03.230Z,99984.97
2022-11-10T08:10:31.598Z,99989.34
2022-11-10T08:13:01.158Z,99990.09
2022-11-10T08:15:29.668Z,99997.81
2022-11-10T08:18:14.302Z,99998.63
2022-11-10T08:20:42.051Z,99991.88
2022-11-10T08:23:09.262Z,100000.22
2022-11-10T08:25:37.640Z,100001.03
2022-11-10T08:28:11.179Z,99997.47
2022-11-10T08:30:40.558Z,100004.31
2022-11-10T08:33:10.253Z,100001.81
2022-11-10T08:35:41.563Z,100010.38
2022-11-10T08:38:14.057Z,100011.94
2022-11-10T08:40:41.507Z,100011.91
2022-11-10T08:43:09.538Z,100013.50
2022-11-10T08:45:39.534Z,100022.19
2022-11-10T08:48:09.906Z,100011.06
2022-11-10T08:50:37.628Z,100028.13
2022-11-10T08:53:07.679Z,100018.69
2022-11-10T08:55:34.680Z,100021.72
2022-11-10T08:58:04.073Z,100017.41
2022-11-10T09:00:32.821Z,100018.16
2022-11-10T09:05:42.734Z,100038.75
2022-11-10T09:08:10.525Z,100042.19
2022-11-10T09:10:41.880Z,100037.22
2022-11-10T09:13:10.183Z,100047.25
2022-11-10T09:15:37.333Z,100043.78
2022-11-10T09:18:06.649Z,100041.88
2022-11-10T09:20:36.245Z,100053.78
2022-11-10T09:23:18.193Z,100057.31
2022-11-10T09:25:51.266Z,100059.72
2022-11-10T09:28:19.793Z,100064.00
2022-11-10T09:30:48.866Z,100068.31
2022-11-10T09:33:16.731Z,100069.75
2022-11-10T09:35:43.562Z,100068.13
2022-11-10T09:38:11.768Z,100068.81
2022-11-10T09:41:23.756Z,100074.19
2022-11-10T09:44:16.502Z,100068.06
2022-11-10T09:46:58.441Z,100074.88
2022-11-10T09:49:49.504Z,100088.59
2022-11-10T09:52:18.000Z,100085.88
2022-11-10T09:55:19.013Z,100097.88
2022-11-10T09:57:49.115Z,100094.41
2022-11-10T10:00:18.254Z,100090.88
2022-11-10T10:02:57.993Z,100096.69
2022-11-10T10:05:47.891Z,100095.75
2022-11-10T10:08:45.600Z,100098.19
2022-11-10T10:11:32.641Z,100099.78
2022-11-10T10:14:20.439Z,100098.81
2022-11-10T10:17:06.186Z,100097.97
2022-11-10T10:20:10.537Z,100107.19
2022-11-10T10:23:02.125Z,100101.88
2022-11-10T10:25:29.214Z,100102.66
2022-11-10T10:28:34.026Z,100099.94
2022-11-10T10:31:15.238Z,100091.22
2022-11-10T10:33:42.081Z,100092.81
2022-11-10T10:36:15.390Z,100100.50
2022-11-10T10:38:46.582Z,100088.50
2022-11-10T10:41:24.581Z,100104.56
2022-11-10T10:43:55.825Z,100099.25
2022-11-10T10:46:35.672Z,100096.56
2022-11-10T10:49:29.779Z,100093.84
2022-11-10T10:52:11.469Z,100093.72
2022-11-10T10:54:39.769Z,100097.84
2022-11-10T10:57:25.588Z,100083.88
2022-11-10T11:00:10.618Z,100082.69
2022-11-10T11:02:38.670Z,100089.59
2022-11-10T11:05:19.152Z,100096.19
2022-11-10T11:07:58.627Z,100083.72
2022-11-10T11:10:35.139Z,100086.13
2022-11-10T11:13:25.959Z,100078.16
2022-11-10T11:16:01.613Z,100067.44
2022-11-10T11:18:31.726Z,100083.03
2022-11-10T11:21:37.806Z,100089.41
2022-11-10T11:24:16.267Z,100084.34
2022-11-10T11:27:10.592Z,100087.72
2022-11-10T11:30:08.591Z,100064.81
2022-11-10T11:33:14.559Z,100084.84
2022-11-10T11:36:03.371Z,100085.41
2022-11-10T11:38:47.041Z,100079.00
2022-11-10T11:41:37.261Z,100089.03
2022-11-10T11:44:30.919Z,100102.53
2022-11-10T11:47:15.660Z,100090.13
2022-11-10T11:50:18.688Z,100090.69
2022-11-10T11:53:44.688Z,100088.56
2022-11-10T11:56:28.693Z,100085.16
2022-11-10T11:59:20.326Z,100077.19
2022-11-10T12:02:40.262Z,100084.94
2022-11-10T12:05:37.570Z,100087.69
2022-11-10T12:08:23.493Z,100087.69
2022-11-10T12:11:05.521Z,100081.56
2022-11-10T12:14:13.197Z,100076.09
2022-11-10T12:16:47.270Z,100079.31
2022-11-10T12:20:11.388Z,100070.56
2022-11-10T12:23:29.439Z,100057.91
2022-11-10T12:26:25.116Z,100069.88
2022-11-10T12:29:18.152Z,100061.91
2022-11-10T12:31:47.877Z,100064.59
2022-11-10T12:34:43.778Z,100082.13
2022-11-10T12:37:27.536Z,100076.91
2022-11-10T12:40:16.218Z,100073.56
2022-11-10T12:42:50.344Z,100067.72
2022-11-10T12:45:53.452Z,100062.53
2022-11-10T12:48:21.545Z,100059.22
2022-11-10T12:51:20.101Z,100057.28
2022-11-10T12:53:48.641Z,100057.75
2022-11-10T12:56:23.530Z,100066.47
2022-11-10T12:59:25.411Z,100063.88
2022-11-10T13:02:02.318Z,100059.38
2022-11-10T13:04:30.393Z,100052.41
2022-11-10T13:07:01.661Z,100049.78
2022-11-10T13:09:33.133Z,100059.19
2022-11-10T13:12:21.578Z,100065.34
2022-11-10T13:14:48.981Z,100064.38
2022-11-10T13:17:28.148Z,100063.53
2022-11-10T13:20:09.408Z,100074.81
2022-11-10T13:22:44.915Z,100079.19
2022-11-10T13:25:36.959Z,100080.16
2022-11-10T13:28:05.164Z,100081.16
2022-11-10T13:30:48.638Z,100083.69
2022-11-10T13:34:10.972Z,100082.41
2022-11-10T13:36:49.240Z,100087.13
2022-11-10T13:39:32.275Z,100092.34
2022-11-10T13:42:08.127Z,100084.59
2022-11-10T13:44:42.219Z,100081.13
2022-11-10T13:47:08.986Z,100082.97
2022-11-10T13:50:03.513Z,100083.47
2022-11-10T13:52:39.318Z,100076.53
2022-11-10T13:55:40.421Z,100078.03
2022-11-10T13:58:18.894Z,100081.97
2022-11-10T14:00:51.284Z,100085.47
2022-11-10T14:03:46.131Z,100094.38
2022-11-10T14:06:48.811Z,100094.53
2022-11-10T14:09:33.417Z,100084.53
2022-11-10T14:12:14.223Z,100091.34
2022-11-10T14:14:59.563Z,100095.66
2022-11-10T14:17:32.637Z,100093.13
2022-11-10T14:20:00.110Z,100098.41
2022-11-10T14:22:43.112Z,100105.38
2022-11-10T14:25:36.262Z,100102.00
2022-11-10T14:28:27.135Z,100082.56
2022-11-10T14:30:55.612Z,100100.31
2022-11-10T14:33:23.999Z,100102.31
2022-11-10T14:35:55.674Z,100093.06
2022-11-10T14:38:29.246Z,100097.00
2022-11-10T14:40:59.114Z,100103.28
2022-11-10T14:43:32.405Z,100102.41
2022-11-10T14:46:00.175Z,100106.72
2022-11-10T14:48:30.120Z,100105.53
2022-11-10T14:51:17.563Z,100116.94
2022-11-10T14:53:50.466Z,100106.94
2022-11-10T14:56:27.833Z,100117.09
2022-11-10T14:58:55.826Z,100119.78
2022-11-10T15:01:42.101Z,100125.13
2022-11-10T15:04:11.956Z,100131.31
2022-11-10T15:06:43.064Z,100136.47
2022-11-10T15:09:29.403Z,100136.53
2022-11-10T15:12:23.480Z,100134.84
2022-11-10T15:15:00.207Z,100146.09
2022-11-10T15:17:50.574Z,100140.88
2022-11-10T15:20:58.636Z,100151.38
2022-11-10T15:23:40.613Z,100144.56
2022-11-10T15:26:22.351Z,100145.53
2022-11-10T15:28:49.185Z,100142.94
2022-11-10T15:31:33.290Z,100148.28
2022-11-10T15:34:05.294Z,100150.97
2022-11-10T15:36:36.188Z,100153.66
2022-11-10T15:39:23.214Z,100159.06
2022-11-10T15:41:57.237Z,100163.47
2022-11-10T15:44:29.795Z,100164.63
2022-11-10T15:46:58.983Z,100158.69
2022-11-10T15:49:35.086Z,100153.22
2022-11-10T15:52:21.756Z,100164.75
2022-11-10T15:54:50.668Z,100168.44
2022-11-10T15:57:19.207Z,100181.50
2022-11-10T15:59:45.980Z,100178.88
2022-11-10T16:02:25.110Z,100133.16
2022-11-10T16:04:59.722Z,100176.56
2022-11-10T16:07:26.866Z,100184.56
2022-11-10T16:09:53.638Z,100187.25
2022-11-10T16:12:22.506Z,100194.34
2022-11-10T16:14:52.790Z,100197.09
2022-11-10T16:17:19.707Z,100181.16
2022-11-10T16:19:47.490Z,100195.72
2022-11-10T16:22:14.754Z,100188.81
2022-11-10T16:24:41.631Z,100196.75
2022-11-10T16:27:13.303Z,100204.88
2022-11-10T16:29:41.662Z,100203.28
2022-11-10T16:32:11.465Z,100197.69
2022-11-10T16:34:38.327Z,100212.22
2022-11-10T16:37:05.281Z,100215.97
2022-11-10T16:39:32.055Z,100189.84
2022-11-10T16:41:58.869Z,100222.47
2022-11-10T16:44:25.660Z,100224.25
2022-11-10T16:46:56.676Z,100225.47
2022-11-10T16:49:32.255Z,100236.28
2022-11-10T16:51:59.282Z,100239.97
2022-11-10T16:54:27.329Z,100237.47
2022-11-10T16:56:54.141Z,100239.41
2022-11-10T16:59:20.886Z,100246.66
2022-11-10T17:01:48.681Z,100258.94
2022-11-10T17:04:15.667Z,100257.84
2022-11-10T17:06:43.215Z,100273.19
2022-11-10T17:09:22.540Z,100274.50
2022-11-10T17:11:49.887Z,100276.28
2022-11-10T17:14:17.720Z,100270.31
2022-11-10T17:16:46.398Z,100267.09
2022-11-10T17:19:25.680Z,100265.47
2022-11-10T17:21:54.097Z,100250.63
2022-11-10T17:24:21.638Z,100271.88
2022-11-10T17:26:49.572Z,100266.31
2022-11-10T17:29:18.676Z,100277.28
2022-11-10T17:31:45.620Z,100277.59
2022-11-10T17:34:12.771Z,100277.81
2022-11-10T17:36:40.056Z,100271.69
2022-11-10T17:39:07.276Z,100271.75
2022-11-10T17:41:34.224Z,100271.22
2022-11-10T17:44:01.060Z,100285.16
2022-11-10T17:46:27.842Z,100284.50
2022-11-10T17:48:58.777Z,100296.75
2022-11-10T17:51:28.527Z,100295.94
2022-11-10T17:53:55.390Z,100298.63
2022-11-10T17:56:22.156Z,100309.19
2022-11-10T17:58:49.117Z,100298.44
2022-11-10T18:01:19.771Z,100302.88
2022-11-10T18:03:46.774Z,100308.75
2022-11-10T18:06:15.317Z,100309.47
2022-11-10T18:08:42.953Z,100300.06
2022-11-10T18:11:16.516Z,100307.94
2022-11-10T18:13:44.191Z,100316.81
2022-11-10T18:16:14.575Z,100316.94
2022-11-10T18:18:41.764Z,100300.03
2022-11-10T18:21:09.533Z,100319.75
2022-11-10T18:23:36.475Z,100320.66
2022-11-10T18:26:08.357Z,100319.94
2022-11-10T18:28:36.187Z,100325.22
2022-11-10T18:31:12.500Z,100328.75
2022-11-10T18:33:39.316Z,100335.00
2022-11-10T18:36:06.903Z,100323.38
2022-11-10T18:38:33.947Z,100338.66
2022-11-10T18:41:23.599Z,100337.06
2022-11-10T18:43:50.544Z,100331.41
2022-11-10T18:46:17.368Z,100333.09
2022-11-10T18:48:46.510Z,100315.28
2022-11-10T18:51:14.114Z,100323.06
2022-11-10T18:53:40.914Z,100337.56
2022-11-10T18:56:07.908Z,100331.66
2022-11-10T18:58:34.686Z,100319.84
2022-11-10T19:01:10.156Z,100333.47
2022-11-10T19:03:37.640Z,100317.50
2022-11-10T19:06:05.406Z,100329.50
2022-11-10T19:08:32.216Z,100337.28
2022-11-10T19:10:59.014Z,100337.28
2022-11-10T19:13:26.057Z,100334.75
2022-11-10T19:15:55.587Z,100340.91
2022-11-10T19:18:22.408Z,100340.91
2022-11-10T19:20:49.196Z,100343.75
2022-11-10T19:23:16.044Z,100343.75
2022-11-10T19:25:42.809Z,100346.41
2022-11-10T19:28:11.553Z,100347.41
2022-11-10T19:30:39.458Z,100351.00
2022-11-10T19:33:06.681Z,100358.81
2022-11-10T19:35:33.429Z,100355.47
2022-11-10T19:38:00.196Z,100357.06
2022-11-10T19:40:26.955Z,100358.91
2022-11-10T19:42:53.892Z,100347.88
2022-11-10T19:45:20.668Z,100360.00
2022-11-10T19:47:47.417Z,100358.41
2022-11-10T19:50:14.158Z,100356.63
2022-11-10T19:52:41.002Z,100366.91
2022-11-10T19:55:08.066Z,100351.66
2022-11-10T19:57:34.812Z,100352.59
2022-11-10T20:00:01.622Z,100355.38
2022-11-10T20:02:28.807Z,100370.66
2022-11-10T20:05:13.490Z,100360.56
2022-11-10T20:07:58.632Z,100346.78
2022-11-10T20:10:25.421Z,100363.97
2022-11-10T20:12:52.580Z,100356.53
2022-11-10T20:15:19.464Z,100379.72
2022-11-10T20:17:46.248Z,100391.84
2022-11-10T20:20:13.551Z,100390.28
2022-11-10T20:22:40.404Z,100384.25
2022-11-10T20:25:07.780Z,100374.94
2022-11-10T20:27:34.537Z,100387.88
2022-11-10T20:30:01.275Z,100392.25
2022-11-10T20:32:28.305Z,100397.28
2022-11-10T20:34:55.085Z,100407.81
2022-11-10T20:37:21.891Z,100403.53
2022-11-10T20:39:48.641Z,100406.25
2022-11-10T20:42:15.473Z,100390.09
2022-11-10T20:44:42.264Z,100411.56
2022-11-10T20:47:09.204Z,100410.66
2022-11-10T20:49:35.979Z,100416.69
2022-11-10T20:52:03.204Z,100424.44
2022-11-10T20:54:30.221Z,100399.03
2022-11-10T20:56:57.051Z,100415.19
2022-11-10T20:59:23.935Z,100423.00
2022-11-10T21:01:50.820Z,100421.44
2022-11-10T21:04:18.163Z,100417.16
2022-11-10T21:06:45.099Z,100401.78
2022-11-10T21:09:12.441Z,100418.84
2022-11-10T21:11:57.760Z,100424.00
2022-11-10T21:14:24.516Z,100421.50
2022-11-10T21:16:51.330Z,100424.13
2022-11-10T21:19:18.120Z,100415.63
2022-11-10T21:21:44.891Z,100403.56
2022-11-10T21:24:12.221Z,100403.72
2022-11-10T21:26:39.011Z,100404.63
2022-11-10T21:29:07.781Z,100404.56
2022-11-10T21:31:34.624Z,100404.69
2022-11-10T21:34:01.508Z,100396.97
2022-11-10T21:36:29.466Z,100386.72
2022-11-10T21:38:58.432Z,100403.00
2022-11-10T21:41:26.326Z,100399.63
2022-11-10T21:43:53.114Z,100399.66
2022-11-10T21:46:20.824Z,100402.19
2022-11-10T21:48:50.141Z,100405.66
2022-11-10T21:51:17.458Z,100421.13
2022-11-10T21:53:44.203Z,100408.44
2022-11-10T21:56:12.300Z,100422.06
2022-11-10T21:58:39.792Z,100404.19
2022-11-10T22:01:16.646Z,100405.66
2022-11-10T22:03:43.825Z,100395.69
2022-11-10T22:06:16.379Z,100411.81
2022-11-10T22:08:45.476Z,100410.06
2022-11-10T22:11:34.191Z,100409.34
2022-11-10T22:14:19.976Z,100387.94
2022-11-10T22:17:09.768Z,100400.88
2022-11-10T22:19:37.492Z,100394.03
2022-11-10T22:22:04.615Z,100383.69
2022-11-10T22:24:31.958Z,100386.34
2022-11-10T22:27:01.692Z,100392.41
2022-11-10T22:29:32.248Z,100387.31
2022-11-10T22:32:02.866Z,100386.31
2022-11-10T22:34:29.851Z,100390.66
2022-11-10T22:36:57.041Z,100383.03
2022-11-10T22:39:43.769Z,100386.47
2022-11-10T22:42:31.122Z,100384.69
2022-11-10T22:44:58.020Z,100388.19
2022-11-10T22:47:24.770Z,100396.00
2022-11-10T22:49:51.530Z,100384.91
2022-11-10T22:52:18.303Z,100392.69
2022-11-10T22:54:45.056Z,100399.56
2022-11-10T22:57:11.836Z,100392.75
2022-11-10T22:59:38.638Z,100396.13
2022-11-10T23:02:05.492Z,100401.31
2022-11-10T23:04:32.231Z,100399.69
2022-11-10T23:06:59.108Z,100404.97
2022-11-10T23:09:25.894Z,100403.09
2022-11-10T23:11:52.789Z,100402.31
2022-11-10T23:14:19.575Z,100409.19
2022-11-10T23:16:46.360Z,100402.38
2022-11-10T23:19:13.225Z,100398.09
2022-11-10T23:21:40.014Z,100405.00
2022-11-10T23:24:07.140Z,100404.22
2022-11-10T23:26:34.755Z,100411.97
2022-11-10T23:29:01.567Z,100412.91
2022-11-10T23:31:28.625Z,100417.19
2022-11-10T23:33:57.645Z,100408.72
2022-11-10T23:36:25.980Z,100418.94
2022-11-10T23:38:54.375Z,100424.19
2022-11-10T23:41:26.117Z,100428.50
2022-11-10T23:43:53.748Z,100417.19
2022-11-10T23:46:20.549Z,100424.19
2022-11-10T23:48:47.384Z,100431.97
2022-11-10T23:51:14.981Z,100432.03
2022-11-10T23:53:42.367Z,100410.69
2022-11-10T23:56:14.111Z,100427.78
2022-11-10T23:58:41.477Z,100421.84
